Time;durP1;ratioP1;P1;durP2;ratioP2;P2;SDS_P1;SDS_P2;PMS_P1;PMS_P2;Temp;Humidity;BMP_temperature;BMP_pressure;BME280_temperature;BME280_humidity;BME280_pressure;Samples;Min_cycle;Max_cycle;Signal;HPM_P1;HPM_P2
2023/08/31 00:00:51;;;;;;;1.92;0.65;;;12.40;99.90;;;;;;5037434;28;20145;-68
2023/08/31 00:03:17;;;;;;;3.15;0.90;;;12.40;99.90;;;;;;5045761;28;20059;-69
2023/08/31 00:05:43;;;;;;;2.33;0.77;;;12.40;99.90;;;;;;5034214;28;20728;-68
2023/08/31 00:08:09;;;;;;;;;;;12.40;99.90;;;;;;5049730;28;20469;-68
2023/08/31 00:10:35;;;;;;;4.53;0.70;;;12.40;99.90;;;;;;5047582;28;19920;-68
2023/08/31 00:13:08;;;;;;;1.30;0.43;;;12.40;99.90;;;;;;5048264;28;20045;-68
2023/08/31 00:15:35;;;;;;;3.97;0.65;;;12.40;99.90;;;;;;5020069;28;20042;-68
2023/08/31 00:18:03;;;;;;;1.63;0.52;;;12.30;99.90;;;;;;5052368;28;20041;-68
2023/08/31 00:20:30;;;;;;;3.55;0.60;;;12.30;99.90;;;;;;5048457;28;20401;-68
2023/08/31 00:22:56;;;;;;;2.78;0.68;;;12.40;99.90;;;;;;5034484;28;20048;-68
2023/08/31 00:25:22;;;;;;;3.05;0.63;;;12.30;99.90;;;;;;5013204;28;20085;-68
2023/08/31 00:27:48;;;;;;;2.50;0.70;;;12.30;99.90;;;;;;5020273;28;20045;-68
2023/08/31 00:30:14;;;;;;;0.65;0.52;;;12.30;99.90;;;;;;5031803;28;20087;-68
2023/08/31 00:32:42;;;;;;;2.08;1.00;;;12.30;99.90;;;;;;5059719;28;20044;-68
2023/08/31 00:35:09;;;;;;;2.38;0.70;;;12.30;99.90;;;;;;5045868;28;20419;-67
2023/08/31 00:37:35;;;;;;;3.70;1.00;;;12.30;99.90;;;;;;5030106;28;20033;-68
2023/08/31 00:40:01;;;;;;;1.10;0.57;;;12.20;99.90;;;;;;5046880;28;20457;-68
2023/08/31 00:42:29;;;;;;;1.67;0.50;;;12.20;99.90;;;;;;5039157;28;20045;-68
2023/08/31 00:44:55;;;;;;;1.30;0.38;;;12.20;99.90;;;;;;5034603;28;20040;-67
2023/08/31 00:47:20;;;;;;;2.25;0.50;;;12.20;99.90;;;;;;5035583;28;20053;-68
2023/08/31 00:49:47;;;;;;;2.15;0.60;;;12.20;99.90;;;;;;5023948;28;20068;-68
2023/08/31 00:52:13;;;;;;;0.95;0.28;;;12.20;99.90;;;;;;5024903;28;20487;-68
2023/08/31 00:54:39;;;;;;;0.40;0.20;;;12.20;99.90;;;;;;5046202;28;20060;-68
2023/08/31 00:57:04;;;;;;;1.30;0.40;;;12.20;99.90;;;;;;5029288;28;20076;-68
2023/08/31 00:59:30;;;;;;;3.95;0.57;;;12.20;99.90;;;;;;5028027;28;20033;-68
2023/08/31 01:02:11;;;;;;;1.17;0.32;;;12.10;99.90;;;;;;5030693;28;20048;-68
2023/08/31 01:04:53;;;;;;;0.80;0.30;;;12.20;99.90;;;;;;5021291;28;20045;-68
2023/08/31 01:07:41;;;;;;;1.20;0.30;;;12.20;99.90;;;;;;5032689;28;20053;-67
2023/08/31 01:10:32;;;;;;;1.08;0.30;;;12.10;99.90;;;;;;5046817;28;20055;-68
2023/08/31 01:13:03;;;;;;;0.77;0.30;;;12.10;99.90;;;;;;5035684;28;20546;-67
2023/08/31 01:15:31;;;;;;;0.75;0.38;;;12.10;99.90;;;;;;5026687;28;20518;-67
2023/08/31 01:18:00;;;;;;;2.13;0.28;;;12.10;99.90;;;;;;5044717;28;20055;-66
2023/08/31 01:20:44;;;;;;;3.38;0.45;;;12.10;99.90;;;;;;5024369;28;20041;-67
2023/08/31 01:23:20;;;;;;;0.35;0.20;;;12.00;99.90;;;;;;5039081;28;20051;-67
2023/08/31 01:25:48;;;;;;;2.55;0.32;;;12.10;99.90;;;;;;5022587;28;20044;-67
2023/08/31 01:28:14;;;;;;;1.00;0.40;;;12.00;99.90;;;;;;5024942;28;20045;-67
2023/08/31 01:30:42;;;;;;;1.67;0.22;;;12.00;99.90;;;;;;5047245;28;20083;-67
2023/08/31 01:33:08;;;;;;;0.93;0.30;;;12.00;99.90;;;;;;5048837;28;20083;-67
2023/08/31 01:35:43;;;;;;;1.00;0.40;;;12.00;99.90;;;;;;5047234;28;20406;-67
2023/08/31 01:38:10;;;;;;;2.25;0.28;;;12.00;99.90;;;;;;5058471;28;20067;-67
2023/08/31 01:40:42;;;;;;;0.70;0.30;;;12.00;99.90;;;;;;5028630;28;20502;-67
2023/08/31 01:43:10;;;;;;;1.05;0.20;;;12.00;99.90;;;;;;5004832;28;20048;-66
2023/08/31 01:45:38;;;;;;;1.05;0.30;;;12.00;99.90;;;;;;5046180;28;20484;-67
2023/08/31 01:48:05;;;;;;;3.13;0.40;;;12.00;99.90;;;;;;5014962;28;20399;-67
2023/08/31 01:50:33;;;;;;;2.63;0.50;;;12.00;99.90;;;;;;5030536;28;20045;-66
2023/08/31 01:52:59;;;;;;;2.75;0.45;;;12.10;99.90;;;;;;5026362;28;20037;-66
2023/08/31 01:55:24;;;;;;;1.40;0.30;;;12.00;99.90;;;;;;5043213;28;20052;-67
2023/08/31 01:57:50;;;;;;;4.18;0.38;;;12.10;99.90;;;;;;5034110;28;20091;-67
2023/08/31 02:00:18;;;;;;;0.55;0.22;;;12.10;99.90;;;;;;5043580;28;20124;-67
2023/08/31 02:02:43;;;;;;;2.03;0.30;;;12.10;99.90;;;;;;5042487;28;20470;-67
2023/08/31 02:05:09;;;;;;;2.67;0.40;;;12.10;99.90;;;;;;5025471;28;20079;-67
2023/08/31 02:07:35;;;;;;;0.30;0.22;;;12.10;99.90;;;;;;5043362;28;20347;-67
2023/08/31 02:10:02;;;;;;;0.82;0.28;;;12.10;99.90;;;;;;5030527;28;20045;-67
2023/08/31 02:12:27;;;;;;;1.50;0.50;;;12.10;99.90;;;;;;5047301;28;20045;-67
2023/08/31 02:14:56;;;;;;;0.93;0.32;;;12.10;99.90;;;;;;5042277;28;20105;-67
2023/08/31 02:17:23;;;;;;;1.13;0.40;;;12.10;99.90;;;;;;5011190;28;20072;-69
2023/08/31 02:19:51;;;;;;;1.10;0.40;;;12.00;99.90;;;;;;5022433;28;20120;-69
2023/08/31 02:22:17;;;;;;;1.17;0.45;;;12.10;99.90;;;;;;5010748;28;20419;-69
2023/08/31 02:24:44;;;;;;;0.47;0.30;;;12.00;99.90;;;;;;5022067;28;20053;-72
2023/08/31 02:27:10;;;;;;;3.10;0.35;;;12.10;99.90;;;;;;5026676;28;20166;-73
2023/08/31 02:29:36;;;;;;;1.00;0.38;;;12.10;99.90;;;;;;5022276;28;20327;-71
2023/08/31 02:32:04;;;;;;;0.43;0.30;;;12.00;99.90;;;;;;5030087;28;20657;-71
2023/08/31 02:34:30;;;;;;;4.85;0.40;;;12.00;99.90;;;;;;5032670;28;20042;-70
2023/08/31 02:36:56;;;;;;;0.68;0.15;;;12.00;99.90;;;;;;5022388;28;20033;-71
2023/08/31 02:39:23;;;;;;;0.53;0.20;;;12.00;99.90;;;;;;5054449;28;20482;-71
2023/08/31 02:41:51;;;;;;;0.95;0.40;;;11.90;99.90;;;;;;5024213;28;20508;-71
2023/08/31 02:44:17;;;;;;;1.38;0.50;;;11.90;99.90;;;;;;5019211;28;20126;-72
2023/08/31 02:46:43;;;;;;;2.75;0.60;;;11.90;99.90;;;;;;5040299;28;20041;-70
2023/08/31 02:49:09;;;;;;;0.80;0.30;;;11.90;99.90;;;;;;5030853;28;20402;-70
2023/08/31 02:51:35;;;;;;;1.43;0.40;;;11.90;99.90;;;;;;5032295;28;20282;-70
2023/08/31 02:54:00;;;;;;;3.28;0.52;;;11.90;99.90;;;;;;5055160;28;20320;-70
2023/08/31 02:56:26;;;;;;;3.35;0.47;;;11.80;99.90;;;;;;5019190;28;20049;-71
2023/08/31 02:58:52;;;;;;;1.30;0.47;;;11.80;99.90;;;;;;5045398;28;20037;-72
2023/08/31 03:01:17;;;;;;;2.42;0.40;;;11.80;99.90;;;;;;5026739;28;20302;-71
2023/08/31 03:03:45;;;;;;;1.90;0.73;;;11.80;99.90;;;;;;5042432;28;20090;-71
2023/08/31 03:06:11;;;;;;;1.38;0.75;;;11.80;99.90;;;;;;5059279;28;20044;-70
2023/08/31 03:08:37;;;;;;;2.50;0.65;;;11.80;99.90;;;;;;5028506;28;20056;-71
2023/08/31 03:11:04;;;;;;;5.05;0.50;;;11.80;99.90;;;;;;5034299;28;20048;-71
2023/08/31 03:13:31;;;;;;;1.88;0.68;;;11.80;99.90;;;;;;5059087;28;20045;-71
2023/08/31 03:15:57;;;;;;;0.22;0.22;;;11.80;99.90;;;;;;5037686;28;20072;-71
2023/08/31 03:18:23;;;;;;;5.03;0.68;;;11.70;99.90;;;;;;5027902;28;20073;-71
2023/08/31 03:20:49;;;;;;;2.08;0.50;;;11.80;99.90;;;;;;5052342;28;20113;-71
2023/08/31 03:23:15;;;;;;;1.42;0.30;;;11.80;99.90;;;;;;5028925;28;20049;-69
2023/08/31 03:25:44;;;;;;;1.80;1.15;;;11.80;99.90;;;;;;5055637;28;20571;-69
2023/08/31 03:28:13;;;;;;;1.17;0.60;;;11.80;99.90;;;;;;5053914;28;20443;-69
2023/08/31 03:30:38;;;;;;;;;;;11.80;99.90;;;;;;5029248;28;20044;-69
2023/08/31 03:33:04;;;;;;;1.58;0.50;;;11.80;99.90;;;;;;5049161;28;20358;-69
2023/08/31 03:35:32;;;;;;;1.02;0.57;;;11.80;99.90;;;;;;5050272;28;20086;-69
2023/08/31 03:37:57;;;;;;;2.78;0.50;;;11.90;99.90;;;;;;5012357;28;20041;-69
2023/08/31 03:40:23;;;;;;;3.55;0.60;;;11.80;99.90;;;;;;5027612;28;20513;-69
2023/08/31 03:42:53;;;;;;;0.80;0.50;;;11.90;99.90;;;;;;5044800;28;20041;-69
2023/08/31 03:45:19;;;;;;;2.42;0.50;;;11.90;99.90;;;;;;5046752;28;20377;-70
2023/08/31 03:47:45;;;;;;;2.13;0.80;;;11.90;99.90;;;;;;5027035;28;20553;-69
2023/08/31 03:50:11;;;;;;;1.65;0.60;;;11.90;99.90;;;;;;5049141;28;20090;-69
2023/08/31 03:52:36;;;;;;;2.80;0.52;;;11.80;99.90;;;;;;5013870;28;20065;-70
2023/08/31 03:55:02;;;;;;;0.70;0.38;;;11.80;99.90;;;;;;5029148;28;20081;-69
2023/08/31 03:57:28;;;;;;;1.35;0.47;;;11.80;99.90;;;;;;5022393;28;20121;-69
2023/08/31 03:59:54;;;;;;;2.80;0.40;;;11.80;99.90;;;;;;5030829;28;20514;-69
2023/08/31 04:02:19;;;;;;;1.00;0.40;;;11.80;99.90;;;;;;5033596;28;20087;-69
2023/08/31 04:04:45;;;;;;;1.67;0.60;;;11.80;99.90;;;;;;5030841;28;20045;-69
2023/08/31 04:07:13;;;;;;;0.85;0.40;;;11.80;99.90;;;;;;5045570;28;20123;-69
2023/08/31 04:09:39;;;;;;;1.52;0.50;;;11.80;99.90;;;;;;5040349;28;20229;-70
2023/08/31 04:12:06;;;;;;;1.60;0.82;;;11.80;99.90;;;;;;5058427;28;20510;-70
2023/08/31 04:14:31;;;;;;;2.15;0.52;;;11.70;99.90;;;;;;5048088;28;20041;-70
2023/08/31 04:16:57;;;;;;;1.50;0.60;;;11.70;99.90;;;;;;5035508;28;20033;-69
2023/08/31 04:19:23;;;;;;;3.90;0.63;;;11.70;99.90;;;;;;5048426;28;20301;-69
2023/08/31 04:21:48;;;;;;;2.05;0.52;;;11.70;99.90;;;;;;5036135;28;20045;-70
2023/08/31 04:24:14;;;;;;;4.22;0.60;;;11.70;99.90;;;;;;5025227;28;20040;-69
2023/08/31 04:26:40;;;;;;;1.93;0.50;;;11.70;99.90;;;;;;5031965;28;20047;-69
2023/08/31 04:29:06;;;;;;;1.43;0.60;;;11.70;99.90;;;;;;5034260;28;20270;-69
2023/08/31 04:31:32;;;;;;;2.35;0.60;;;11.70;99.90;;;;;;5045707;28;20043;-69
2023/08/31 04:33:58;;;;;;;6.65;1.05;;;11.70;99.90;;;;;;5048352;28;20120;-69
2023/08/31 04:36:25;;;;;;;;;;;11.70;99.90;;;;;;5026965;28;20505;-69
2023/08/31 04:38:54;;;;;;;7.30;0.90;;;11.70;99.90;;;;;;5040679;28;19923;-69
2023/08/31 04:41:19;;;;;;;2.25;0.65;;;11.70;99.90;;;;;;5028704;28;20056;-69
2023/08/31 04:43:47;;;;;;;4.68;0.90;;;11.70;99.90;;;;;;5043863;28;20453;-69
2023/08/31 04:46:13;;;;;;;5.38;1.17;;;11.70;99.90;;;;;;5045643;28;20063;-69
2023/08/31 04:48:39;;;;;;;1.38;0.65;;;11.70;99.90;;;;;;5013157;28;20120;-69
2023/08/31 04:51:05;;;;;;;2.60;0.80;;;11.80;99.90;;;;;;5032738;28;20073;-69
2023/08/31 04:53:31;;;;;;;3.80;0.80;;;11.80;99.90;;;;;;5050571;28;20041;-69
2023/08/31 04:55:57;;;;;;;2.28;0.70;;;11.80;99.90;;;;;;5043606;28;20080;-69
2023/08/31 04:58:23;;;;;;;1.33;0.98;;;11.90;99.90;;;;;;5026980;28;20380;-69
2023/08/31 05:00:48;;;;;;;5.45;1.00;;;11.90;99.90;;;;;;5042437;28;20029;-69
2023/08/31 05:03:14;;;;;;;4.88;0.93;;;11.80;99.90;;;;;;5028472;28;20129;-69
2023/08/31 05:05:41;;;;;;;3.38;1.02;;;11.80;99.90;;;;;;5030750;28;20201;-69
2023/08/31 05:08:08;;;;;;;4.13;0.90;;;11.80;99.90;;;;;;5028056;28;20044;-69
2023/08/31 05:10:34;;;;;;;4.68;0.80;;;11.90;99.90;;;;;;5025203;28;20654;-69
2023/08/31 05:13:00;;;;;;;3.15;0.80;;;11.80;99.90;;;;;;5024146;28;20223;-68
2023/08/31 05:15:28;;;;;;;5.45;1.08;;;11.90;99.90;;;;;;5028590;28;20096;-68
2023/08/31 05:17:54;;;;;;;3.40;0.70;;;11.90;99.90;;;;;;5026159;28;20044;-68
2023/08/31 05:20:23;;;;;;;6.78;0.75;;;11.90;99.90;;;;;;5026562;28;20109;-70
2023/08/31 05:22:49;;;;;;;4.32;1.20;;;11.90;99.90;;;;;;5030215;28;20129;-70
2023/08/31 05:25:15;;;;;;;2.83;0.95;;;11.90;99.90;;;;;;5021590;28;20132;-67
2023/08/31 05:27:40;;;;;;;3.83;1.02;;;11.90;99.90;;;;;;5048159;28;20414;-68
2023/08/31 05:30:07;;;;;;;2.47;1.03;;;11.90;99.90;;;;;;5028492;28;20037;-68
2023/08/31 05:32:32;;;;;;;5.03;1.05;;;11.90;99.90;;;;;;5024574;28;20290;-68
2023/08/31 05:34:59;;;;;;;1.73;0.70;;;11.90;99.90;;;;;;5043504;28;20139;-67
2023/08/31 05:37:25;;;;;;;4.35;1.13;;;11.90;99.90;;;;;;5040927;28;20037;-70
2023/08/31 05:39:54;;;;;;;4.43;0.80;;;11.90;99.90;;;;;;5025944;28;20033;-74
2023/08/31 05:42:20;;;;;;;1.23;0.50;;;12.00;99.90;;;;;;5028316;28;20041;-72
2023/08/31 05:44:45;;;;;;;3.50;1.13;;;12.00;99.90;;;;;;5020559;28;20136;-72
2023/08/31 05:47:11;;;;;;;3.63;1.13;;;12.10;99.90;;;;;;5021093;28;20100;-70
2023/08/31 05:49:37;;;;;;;3.75;0.95;;;12.10;99.90;;;;;;5021889;28;20357;-71
2023/08/31 05:52:03;;;;;;;2.78;1.08;;;12.10;99.90;;;;;;5025087;28;20521;-75
2023/08/31 05:54:29;;;;;;;1.92;0.75;;;12.20;99.90;;;;;;5036789;28;20071;-75
2023/08/31 05:56:55;;;;;;;2.72;0.80;;;12.20;99.90;;;;;;5015492;28;20048;-71
2023/08/31 05:59:21;;;;;;;2.00;0.90;;;12.20;99.90;;;;;;5031769;28;20098;-71
2023/08/31 06:01:46;;;;;;;3.45;1.02;;;12.30;99.90;;;;;;5045496;28;20301;-70
2023/08/31 06:04:12;;;;;;;7.10;1.10;;;12.30;99.90;;;;;;5042629;28;20041;-70
2023/08/31 06:06:38;;;;;;;2.72;0.85;;;12.40;99.90;;;;;;5026780;28;20069;-70
2023/08/31 06:09:06;;;;;;;2.45;0.68;;;12.40;99.90;;;;;;5026831;28;20044;-70
2023/08/31 06:11:32;;;;;;;2.25;0.73;;;12.40;99.90;;;;;;5022818;28;20120;-68
2023/08/31 06:13:58;;;;;;;2.85;0.88;;;12.50;99.90;;;;;;5024017;28;20156;-68
2023/08/31 06:16:23;;;;;;;3.27;1.00;;;12.60;99.90;;;;;;5043286;28;20041;-70
2023/08/31 06:18:49;;;;;;;5.65;0.82;;;12.60;99.90;;;;;;5025653;28;20340;-74
2023/08/31 06:21:15;;;;;;;1.70;0.85;;;12.60;99.90;;;;;;5038755;28;20415;-69
2023/08/31 06:23:40;;;;;;;9.27;0.90;;;12.60;99.90;;;;;;5047849;28;20154;-71
2023/08/31 06:26:06;;;;;;;5.20;0.87;;;12.70;99.90;;;;;;5030387;28;20297;-68
2023/08/31 06:28:35;;;;;;;2.42;0.80;;;12.80;99.90;;;;;;5010872;28;20390;-70
2023/08/31 06:31:01;;;;;;;2.05;0.88;;;12.80;99.90;;;;;;5024043;28;20095;-71
2023/08/31 06:33:26;;;;;;;6.13;0.90;;;12.90;99.90;;;;;;5041898;28;20045;-68
2023/08/31 06:35:52;;;;;;;4.50;0.70;;;12.90;99.90;;;;;;5046093;28;20089;-70
2023/08/31 06:38:21;;;;;;;3.00;0.73;;;12.90;99.90;;;;;;5027179;28;20322;-67
2023/08/31 06:40:47;;;;;;;2.75;0.70;;;13.00;99.90;;;;;;5037436;28;20041;-67
2023/08/31 06:43:13;;;;;;;3.58;1.23;;;13.10;99.90;;;;;;5029581;28;20051;-68
2023/08/31 06:45:40;;;;;;;2.92;0.90;;;13.10;99.90;;;;;;5026792;28;20060;-72
2023/08/31 06:48:06;;;;;;;3.97;0.90;;;13.20;99.90;;;;;;5028123;28;20292;-67
2023/08/31 06:50:35;;;;;;;3.30;0.80;;;13.30;99.90;;;;;;5048076;28;20558;-68
2023/08/31 06:53:01;;;;;;;2.35;0.73;;;13.30;99.90;;;;;;5045150;28;20049;-68
2023/08/31 06:55:26;;;;;;;4.22;1.10;;;13.40;99.90;;;;;;5041300;28;20140;-73
2023/08/31 06:57:52;;;;;;;2.00;1.00;;;13.40;99.90;;;;;;5036575;28;20390;-68
2023/08/31 07:00:18;;;;;;;3.08;0.60;;;13.50;99.90;;;;;;5045312;28;20059;-68
2023/08/31 07:02:44;;;;;;;2.40;0.50;;;13.60;99.90;;;;;;5027913;28;20045;-68
2023/08/31 07:05:11;;;;;;;3.38;0.68;;;13.60;99.90;;;;;;5047833;28;20051;-68
2023/08/31 07:07:36;;;;;;;;;;;13.70;99.90;;;;;;5027225;28;20041;-68
2023/08/31 07:10:02;;;;;;;2.20;0.80;;;13.80;99.90;;;;;;5030939;28;19917;-68
2023/08/31 07:12:28;;;;;;;0.82;0.57;;;13.90;99.90;;;;;;5013848;28;20137;-68
2023/08/31 07:14:54;;;;;;;1.92;0.63;;;14.00;99.90;;;;;;5016183;28;20120;-68
2023/08/31 07:17:20;;;;;;;1.60;0.70;;;14.00;99.90;;;;;;5035474;28;20203;-68
2023/08/31 07:19:45;;;;;;;4.00;0.50;;;14.10;99.90;;;;;;5039471;28;20491;-68
2023/08/31 07:22:12;;;;;;;2.88;0.60;;;14.20;99.90;;;;;;5035458;28;20064;-69
2023/08/31 07:24:38;;;;;;;2.47;0.68;;;14.20;99.90;;;;;;5016004;28;20162;-69
2023/08/31 07:27:04;;;;;;;4.38;0.40;;;14.30;99.90;;;;;;5049619;28;20033;-69
2023/08/31 07:29:30;;;;;;;;;;;14.40;99.90;;;;;;5052776;28;20105;-68
2023/08/31 07:31:56;;;;;;;1.33;0.50;;;14.50;99.90;;;;;;5051412;28;19969;-69
2023/08/31 07:34:22;;;;;;;2.63;0.40;;;14.50;99.90;;;;;;5030033;28;20311;-68
2023/08/31 07:36:48;;;;;;;0.82;0.35;;;14.60;99.90;;;;;;5049751;28;20570;-68
2023/08/31 07:39:13;;;;;;;0.88;0.40;;;14.60;99.90;;;;;;5044820;28;20084;-68
2023/08/31 07:41:39;;;;;;;1.80;0.30;;;14.70;99.90;;;;;;5032414;28;20076;-69
2023/08/31 07:44:06;;;;;;;2.50;0.80;;;14.80;99.90;;;;;;5056932;28;20033;-68
2023/08/31 07:46:32;;;;;;;5.35;0.85;;;14.80;99.90;;;;;;5048829;28;20499;-68
2023/08/31 07:48:57;;;;;;;1.23;0.30;;;14.90;99.90;;;;;;5052777;28;20075;-68
2023/08/31 07:51:24;;;;;;;1.95;0.50;;;15.00;99.90;;;;;;5048261;28;20490;-68
2023/08/31 07:53:50;;;;;;;2.60;0.52;;;15.00;99.90;;;;;;5014307;28;20079;-68
2023/08/31 07:56:15;;;;;;;2.65;0.63;;;15.10;99.90;;;;;;5052043;28;20478;-68
2023/08/31 07:58:42;;;;;;;1.52;0.52;;;15.20;99.90;;;;;;5038700;28;20038;-68
2023/08/31 08:01:07;;;;;;;;;;;15.30;99.90;;;;;;5042464;28;20060;-68
2023/08/31 08:03:33;;;;;;;2.65;0.30;;;15.40;99.90;;;;;;5024107;28;19929;-69
2023/08/31 08:05:59;;;;;;;1.95;0.47;;;15.60;99.90;;;;;;5049447;28;20116;-69
2023/08/31 08:08:25;;;;;;;1.23;0.40;;;15.70;99.90;;;;;;5059091;28;20041;-69
2023/08/31 08:10:54;;;;;;;4.03;0.50;;;15.80;99.90;;;;;;5032393;28;20083;-69
2023/08/31 08:13:20;;;;;;;2.05;0.50;;;15.90;99.90;;;;;;5023503;28;20095;-69
2023/08/31 08:15:46;;;;;;;2.17;0.57;;;16.00;99.90;;;;;;5061171;28;20040;-69
2023/08/31 08:18:12;;;;;;;1.30;0.30;;;16.20;99.90;;;;;;5058024;28;20037;-70
2023/08/31 08:20:38;;;;;;;1.35;0.40;;;16.30;99.90;;;;;;5048801;28;20045;-73
2023/08/31 08:23:06;;;;;;;1.10;0.30;;;16.30;99.90;;;;;;5040286;28;20045;-70
2023/08/31 08:25:32;;;;;;;1.27;0.38;;;16.40;99.90;;;;;;5033090;28;20045;-69
2023/08/31 08:27:58;;;;;;;;;;;16.40;99.90;;;;;;5021829;28;20041;-69
2023/08/31 08:30:23;;;;;;;1.98;0.30;;;16.30;99.90;;;;;;5031175;28;19924;-69
2023/08/31 08:32:49;;;;;;;1.33;0.30;;;16.20;99.90;;;;;;5041160;28;20041;-72
2023/08/31 08:35:15;;;;;;;0.88;0.25;;;16.10;99.90;;;;;;5018557;28;20048;-69
2023/08/31 08:37:40;;;;;;;1.05;0.40;;;15.80;99.90;;;;;;5026665;28;20043;-69
2023/08/31 08:40:07;;;;;;;2.80;0.85;;;15.70;99.90;;;;;;5045900;28;20041;-71
2023/08/31 08:42:38;;;;;;;5.28;1.15;;;15.50;99.90;;;;;;5024789;28;20049;-68
2023/08/31 08:45:08;;;;;;;1.83;0.50;;;15.40;99.90;;;;;;5029506;28;20075;-67
2023/08/31 08:47:34;;;;;;;2.72;0.50;;;15.30;99.90;;;;;;5051524;28;20117;-71
2023/08/31 08:50:02;;;;;;;2.03;0.65;;;15.20;99.90;;;;;;5012275;28;20041;-68
2023/08/31 08:52:28;;;;;;;2.13;0.80;;;15.20;99.90;;;;;;5045600;28;20041;-68
2023/08/31 08:54:56;;;;;;;3.13;0.90;;;15.20;99.90;;;;;;5037432;28;20109;-69
2023/08/31 08:57:22;;;;;;;1.92;0.60;;;15.30;99.90;;;;;;5008048;28;20052;-67
2023/08/31 08:59:47;;;;;;;2.50;0.80;;;15.40;99.90;;;;;;5020364;28;20037;-71
2023/08/31 09:02:13;;;;;;;2.15;0.80;;;15.50;99.90;;;;;;5036449;28;20033;-68
2023/08/31 09:04:39;;;;;;;3.90;0.60;;;15.60;99.90;;;;;;5020633;28;20037;-68
2023/08/31 09:07:04;;;;;;;5.00;0.77;;;15.80;99.90;;;;;;5007886;28;20049;-68
2023/08/31 09:09:30;;;;;;;3.08;0.80;;;15.90;99.90;;;;;;5038697;28;20056;-68
2023/08/31 09:11:56;;;;;;;1.65;0.65;;;16.10;99.90;;;;;;5057219;28;20045;-68
2023/08/31 09:14:22;;;;;;;2.88;0.70;;;16.30;99.90;;;;;;5029483;28;20076;-68
2023/08/31 09:16:51;;;;;;;2.22;0.60;;;16.40;99.90;;;;;;5038944;28;20052;-67
2023/08/31 09:19:23;;;;;;;1.90;0.52;;;16.60;99.90;;;;;;5011644;28;20049;-69
2023/08/31 09:21:50;;;;;;;1.45;0.52;;;16.70;99.90;;;;;;5045424;28;20114;-68
2023/08/31 09:24:18;;;;;;;1.55;0.28;;;16.70;99.90;;;;;;5018623;28;20048;-68
2023/08/31 09:26:46;;;;;;;2.70;0.40;;;16.60;99.90;;;;;;5034007;28;20103;-68
2023/08/31 09:29:12;;;;;;;1.63;1.00;;;16.50;99.90;;;;;;5026373;28;20449;-68
2023/08/31 09:31:38;;;;;;;;;;;16.50;99.90;;;;;;5046778;28;20146;-67
2023/08/31 09:34:04;;;;;;;0.60;0.35;;;16.50;99.90;;;;;;5026673;28;20452;-68
2023/08/31 09:36:31;;;;;;;3.28;0.57;;;16.60;99.90;;;;;;5051714;28;20456;-68
2023/08/31 09:39:00;;;;;;;1.40;0.68;;;16.60;99.90;;;;;;5053675;28;20037;-68
2023/08/31 09:41:25;;;;;;;1.50;0.47;;;16.60;99.90;;;;;;5050719;28;20399;-68
2023/08/31 09:43:51;;;;;;;2.72;0.70;;;16.50;99.90;;;;;;5037457;28;20228;-68
2023/08/31 09:46:17;;;;;;;2.22;0.50;;;16.60;99.90;;;;;;5029799;28;20076;-68
2023/08/31 09:48:43;;;;;;;2.58;0.40;;;16.70;99.90;;;;;;5036680;28;20559;-68
2023/08/31 09:51:14;;;;;;;1.38;0.50;;;16.90;99.90;;;;;;5021771;28;20119;-69
2023/08/31 09:53:41;;;;;;;2.55;0.68;;;17.00;99.90;;;;;;5053823;28;20037;-69
2023/08/31 09:56:10;;;;;;;2.83;0.40;;;17.20;99.90;;;;;;5027314;28;20045;-69
2023/08/31 09:58:36;;;;;;;2.33;0.32;;;17.20;99.90;;;;;;5025903;28;20412;-69
2023/08/31 10:01:02;;;;;;;4.22;0.65;;;17.30;99.90;;;;;;5029736;28;20075;-69
2023/08/31 10:03:28;;;;;;;2.97;0.55;;;17.50;99.90;;;;;;5044743;28;20056;-71
2023/08/31 10:05:56;;;;;;;3.30;0.52;;;17.60;99.90;;;;;;5023639;28;20068;-73
2023/08/31 10:08:24;;;;;;;1.83;0.40;;;17.70;99.90;;;;;;5024819;28;20111;-71
2023/08/31 10:10:49;;;;;;;1.25;0.50;;;17.80;99.90;;;;;;5033942;28;20529;-71
2023/08/31 10:13:18;;;;;;;1.20;0.30;;;18.00;99.90;;;;;;5030921;28;20068;-70
2023/08/31 10:15:44;;;;;;;2.97;0.50;;;18.10;99.90;;;;;;5045032;28;20398;-70
2023/08/31 10:18:10;;;;;;;2.08;0.47;;;18.10;99.90;;;;;;5046039;28;20054;-70
2023/08/31 10:20:35;;;;;;;3.22;0.50;;;18.00;99.90;;;;;;5032029;28;20510;-70
2023/08/31 10:23:06;;;;;;;2.25;0.70;;;17.90;99.90;;;;;;5034152;28;20048;-71
2023/08/31 10:25:50;;;;;;;2.85;0.65;;;17.60;99.90;;;;;;5052894;28;20078;-70
2023/08/31 10:28:20;;;;;;;3.30;0.70;;;17.40;99.90;;;;;;5013501;28;20692;-71
2023/08/31 10:31:03;;;;;;;4.65;1.10;;;17.30;99.90;;;;;;5048336;28;20092;-73
2023/08/31 10:33:39;;;;;;;0.98;0.60;;;17.40;99.90;;;;;;5049484;28;20049;-74
2023/08/31 10:36:16;;;;;;;3.63;0.85;;;17.50;99.90;;;;;;5053249;28;20409;-74
2023/08/31 10:39:05;;;;;;;2.25;0.50;;;17.70;99.90;;;;;;5033928;28;20487;-70
2023/08/31 10:41:35;;;;;;;2.25;0.60;;;17.90;99.90;;;;;;5033549;28;20069;-70
2023/08/31 10:44:02;;;;;;;1.52;0.45;;;18.00;99.90;;;;;;5037188;28;20040;-71
2023/08/31 10:46:28;;;;;;;;;;;18.20;99.90;;;;;;5056244;28;20040;-70
2023/08/31 10:49:15;;;;;;;3.78;0.40;;;18.30;99.90;;;;;;5023677;28;19970;-71
2023/08/31 10:51:43;;;;;;;2.75;0.50;;;18.40;99.90;;;;;;5048110;28;20106;-70
2023/08/31 10:54:13;;;;;;;1.70;0.60;;;18.20;99.90;;;;;;5026818;28;20523;-70
2023/08/31 10:56:57;;;;;;;2.17;0.60;;;18.00;99.90;;;;;;5059681;28;20049;-70
2023/08/31 10:59:25;;;;;;;3.05;0.95;;;18.00;99.90;;;;;;5033166;28;20411;-70
2023/08/31 11:02:02;;;;;;;2.85;1.02;;;18.00;99.90;;;;;;5033567;28;20036;-70
2023/08/31 11:04:29;;;;;;;3.25;0.50;;;18.20;99.90;;;;;;5047650;28;20044;-70
2023/08/31 11:07:15;;;;;;;1.95;0.50;;;18.30;99.90;;;;;;5055576;28;20048;-71
2023/08/31 11:09:42;;;;;;;2.05;0.40;;;18.40;99.90;;;;;;5045566;28;20072;-70
2023/08/31 11:12:08;;;;;;;3.28;0.40;;;18.60;99.90;;;;;;5037253;28;20117;-70
2023/08/31 11:14:34;;;;;;;3.65;0.40;;;18.50;99.90;;;;;;5013421;28;20044;-71
2023/08/31 11:17:01;;;;;;;1.67;0.43;;;18.30;99.90;;;;;;5057996;28;20041;-70
2023/08/31 11:19:28;;;;;;;2.58;0.43;;;18.20;99.90;;;;;;5051507;28;20036;-70
2023/08/31 11:21:54;;;;;;;2.00;0.50;;;18.20;99.90;;;;;;5032261;28;20037;-70
2023/08/31 11:24:24;;;;;;;2.05;0.47;;;18.40;99.90;;;;;;5015236;28;20567;-70
2023/08/31 11:26:56;;;;;;;2.03;0.40;;;18.40;99.90;;;;;;5034962;28;20041;-70
2023/08/31 11:29:22;;;;;;;3.53;0.38;;;18.30;99.90;;;;;;5030279;28;20068;-70
2023/08/31 11:31:47;;;;;;;1.92;0.43;;;18.20;99.90;;;;;;5029010;28;20085;-70
2023/08/31 11:34:15;;;;;;;2.13;0.90;;;18.20;99.90;;;;;;5050713;28;20510;-70
2023/08/31 11:36:46;;;;;;;1.40;0.40;;;18.20;99.90;;;;;;5050509;28;20037;-70
2023/08/31 11:39:12;;;;;;;1.50;0.50;;;18.00;99.90;;;;;;5051385;28;20391;-70
2023/08/31 11:41:41;;;;;;;;;;;17.90;99.90;;;;;;5024598;28;20486;-70
2023/08/31 11:44:12;;;;;;;2.10;0.50;;;17.80;99.90;;;;;;5027776;28;19967;-70
2023/08/31 11:46:40;;;;;;;5.70;0.90;;;17.80;99.90;;;;;;5012169;28;20044;-70
2023/08/31 11:49:06;;;;;;;1.10;0.50;;;17.80;99.90;;;;;;5046794;28;20487;-71
2023/08/31 11:51:34;;;;;;;4.10;0.80;;;17.90;99.90;;;;;;5044053;28;20045;-70
2023/08/31 11:54:03;;;;;;;4.45;0.52;;;18.10;99.90;;;;;;5033927;28;20045;-71
2023/08/31 11:56:42;;;;;;;5.10;0.82;;;18.20;99.90;;;;;;5023934;28;20072;-71
2023/08/31 11:59:11;;;;;;;1.73;0.75;;;18.20;99.90;;;;;;5028101;28;20059;-70
2023/08/31 12:01:40;;;;;;;1.55;0.70;;;18.00;99.90;;;;;;5012276;28;20514;-70
2023/08/31 12:04:22;;;;;;;1.67;0.65;;;17.80;99.90;;;;;;5029410;28;20443;-70
2023/08/31 12:06:51;;;;;;;3.67;0.60;;;17.60;99.90;;;;;;5010845;28;20506;-70
2023/08/31 12:09:17;;;;;;;3.00;1.00;;;17.40;99.90;;;;;;5011671;28;20434;-70
2023/08/31 12:11:52;;;;;;;1.92;0.57;;;17.20;99.90;;;;;;5045600;28;20437;-71
2023/08/31 12:14:24;;;;;;;4.20;0.90;;;17.10;99.90;;;;;;5046469;28;20099;-75
2023/08/31 12:16:51;;;;;;;1.23;0.60;;;16.80;99.90;;;;;;5023623;28;20037;-70
2023/08/31 12:19:17;;;;;;;3.92;0.85;;;16.80;99.90;;;;;;5028337;28;20044;-70
2023/08/31 12:21:46;;;;;;;5.05;0.80;;;16.70;99.90;;;;;;5046916;28;20075;-71
2023/08/31 12:24:12;;;;;;;4.25;0.80;;;16.70;99.90;;;;;;5012980;28;20112;-71
2023/08/31 12:26:40;;;;;;;2.40;0.90;;;16.70;99.90;;;;;;5041698;28;20037;-71
2023/08/31 12:29:06;;;;;;;4.57;0.55;;;16.60;99.90;;;;;;5040927;28;20037;-71
2023/08/31 12:31:34;;;;;;;2.85;0.68;;;16.60;99.90;;;;;;5033034;28;20044;-71
2023/08/31 12:34:04;;;;;;;3.88;1.00;;;16.50;99.90;;;;;;5024815;28;20056;-71
2023/08/31 12:36:30;;;;;;;6.13;1.00;;;16.40;99.90;;;;;;5036049;28;20052;-71
2023/08/31 12:38:56;;;;;;;4.20;0.90;;;16.30;99.90;;;;;;5042948;28;20029;-71
2023/08/31 12:41:22;;;;;;;2.90;1.30;;;16.20;99.90;;;;;;5049618;28;20124;-71
2023/08/31 12:43:47;;;;;;;1.40;0.52;;;16.00;99.90;;;;;;5050769;28;20033;-71
2023/08/31 12:46:13;;;;;;;6.95;0.90;;;15.90;99.90;;;;;;5031241;28;20529;-71
2023/08/31 12:48:40;;;;;;;1.88;0.85;;;15.70;99.90;;;;;;5048639;28;20608;-71
2023/08/31 12:51:05;;;;;;;3.80;0.80;;;15.70;99.90;;;;;;5044315;28;20041;-71